createdAt,value
2018-03-26T00:00:32.072Z,3.20
2018-03-26T00:03:00.352Z,3.20
2018-03-26T00:05:28.669Z,3.10
2018-03-26T00:07:57.084Z,3.00
2018-03-26T00:10:25.447Z,3.00
2018-03-26T00:12:54.338Z,3.00
2018-03-26T00:15:22.628Z,2.90
2018-03-26T00:17:50.891Z,2.90
2018-03-26T00:20:19.176Z,2.80
2018-03-26T00:22:47.467Z,2.80
2018-03-26T00:25:15.776Z,2.70
2018-03-26T00:27:44.107Z,2.70
2018-03-26T00:30:12.385Z,2.60
2018-03-26T00:32:40.653Z,2.50
2018-03-26T00:35:08.928Z,2.50
2018-03-26T00:37:37.185Z,2.40
2018-03-26T00:40:05.463Z,2.40
2018-03-26T00:45:04.121Z,2.30
2018-03-26T00:47:32.392Z,2.20
2018-03-26T00:50:01.448Z,2.20
2018-03-26T00:52:29.791Z,2.20
2018-03-26T00:54:58.149Z,2.20
2018-03-26T00:57:26.508Z,2.20
2018-03-26T00:59:54.836Z,2.20
2018-03-26T01:02:23.126Z,2.10
2018-03-26T01:04:51.386Z,2.10
2018-03-26T01:07:19.660Z,2.10
2018-03-26T01:09:47.911Z,2.10
2018-03-26T01:12:16.949Z,2.00
2018-03-26T01:14:45.318Z,2.00
2018-03-26T01:17:13.610Z,2.00
2018-03-26T01:19:41.878Z,2.00
2018-03-26T01:22:11.667Z,2.00
2018-03-26T01:24:39.941Z,1.90
2018-03-26T01:27:08.207Z,2.00
2018-03-26T01:29:36.468Z,1.90
2018-03-26T01:32:05.513Z,1.90
2018-03-26T01:34:33.765Z,1.80
2018-03-26T01:37:02.829Z,1.80
2018-03-26T01:39:31.097Z,1.80
2018-03-26T01:41:59.457Z,1.80
2018-03-26T01:44:27.780Z,1.80
2018-03-26T01:46:56.570Z,1.80
2018-03-26T01:49:24.987Z,1.80
2018-03-26T01:51:53.268Z,1.80
2018-03-26T01:54:21.560Z,1.80
2018-03-26T01:56:49.836Z,1.80
2018-03-26T01:59:18.133Z,1.80
2018-03-26T02:01:46.414Z,1.80
2018-03-26T02:04:14.769Z,1.80
2018-03-26T02:06:43.848Z,1.80
2018-03-26T02:09:12.178Z,1.70
2018-03-26T02:11:41.277Z,1.90
2018-03-26T02:14:10.298Z,2.00
2018-03-26T02:16:39.342Z,2.00
2018-03-26T02:19:07.618Z,2.00
2018-03-26T02:21:35.879Z,2.10
2018-03-26T02:24:04.902Z,2.20
2018-03-26T02:26:33.922Z,2.20
2018-03-26T02:29:02.213Z,2.20
2018-03-26T02:31:30.468Z,2.20
2018-03-26T02:33:59.581Z,2.40
2018-03-26T02:36:28.666Z,2.50
2018-03-26T02:38:57.038Z,2.40
2018-03-26T02:41:25.405Z,2.60
2018-03-26T02:43:54.377Z,2.70
2018-03-26T02:46:22.662Z,2.80
2018-03-26T02:48:51.696Z,3.00
2018-03-26T02:51:19.956Z,2.90
2018-03-26T02:53:49.002Z,3.10
2018-03-26T02:56:17.355Z,3.10
2018-03-26T02:58:46.422Z,3.20
2018-03-26T03:01:14.719Z,3.20
2018-03-26T03:03:43.058Z,3.30
2018-03-26T03:06:11.359Z,3.40
2018-03-26T03:08:39.640Z,3.50
2018-03-26T03:11:07.918Z,3.50
2018-03-26T03:13:36.952Z,3.70
2018-03-26T03:16:05.217Z,3.60
2018-03-26T03:18:34.451Z,3.70
2018-03-26T03:21:02.696Z,3.80
2018-03-26T03:23:30.981Z,3.80
2018-03-26T03:26:00.080Z,3.80
2018-03-26T03:28:28.437Z,3.80
2018-03-26T03:30:56.810Z,3.90
2018-03-26T03:33:25.176Z,3.90
2018-03-26T03:35:53.443Z,3.90
2018-03-26T03:38:23.873Z,3.90
2018-03-26T03:40:52.140Z,3.90
2018-03-26T03:43:20.415Z,4.00
2018-03-26T03:45:48.671Z,3.90
2018-03-26T03:48:17.704Z,4.00
2018-03-26T03:50:45.968Z,3.90
2018-03-26T03:53:15.036Z,4.10
2018-03-26T03:55:43.347Z,4.00
2018-03-26T03:58:12.759Z,4.10
2018-03-26T04:00:41.032Z,4.10
2018-03-26T04:03:09.294Z,4.20
2018-03-26T04:05:37.608Z,4.20
2018-03-26T04:08:05.856Z,4.20
2018-03-26T04:10:34.154Z,4.30
2018-03-26T04:13:02.407Z,4.30
2018-03-26T04:15:30.681Z,4.30
2018-03-26T04:17:59.011Z,4.30
2018-03-26T04:20:27.400Z,4.30
2018-03-26T04:22:55.853Z,4.30
2018-03-26T04:25:24.280Z,4.40
2018-03-26T04:27:53.306Z,4.50
2018-03-26T04:30:21.640Z,4.40
2018-03-26T04:32:49.912Z,4.50
2018-03-26T04:35:18.220Z,4.50
2018-03-26T04:37:46.473Z,4.50
2018-03-26T04:40:14.770Z,4.40
2018-03-26T04:42:43.071Z,4.40
2018-03-26T04:45:11.348Z,4.40
2018-03-26T04:47:39.621Z,4.50
2018-03-26T04:50:07.903Z,4.50
2018-03-26T04:52:36.170Z,4.50
2018-03-26T04:55:05.205Z,4.50
2018-03-26T04:57:33.468Z,4.50
2018-03-26T05:00:02.511Z,4.60
2018-03-26T05:02:30.893Z,4.50
2018-03-26T05:04:59.182Z,4.60
2018-03-26T05:07:27.529Z,4.60
2018-03-26T05:09:56.714Z,4.60
2018-03-26T05:12:25.034Z,4.60
2018-03-26T05:14:53.296Z,4.70
2018-03-26T05:17:21.582Z,4.70
2018-03-26T05:19:49.851Z,4.70
2018-03-26T05:22:18.209Z,4.70
2018-03-26T05:24:47.224Z,4.80
2018-03-26T05:27:16.288Z,4.80
2018-03-26T05:29:44.560Z,4.80
2018-03-26T05:32:12.909Z,4.80
2018-03-26T05:34:41.183Z,4.90
2018-03-26T05:37:09.463Z,5.00
2018-03-26T05:39:37.725Z,5.00
2018-03-26T05:42:06.767Z,5.10
2018-03-26T05:44:35.794Z,5.10
2018-03-26T05:47:04.069Z,5.10
2018-03-26T05:49:32.330Z,5.10
2018-03-26T05:52:00.669Z,5.10
2018-03-26T05:54:29.767Z,5.20
2018-03-26T05:56:58.859Z,5.20
2018-03-26T05:59:27.986Z,5.30
2018-03-26T06:01:56.342Z,5.20
2018-03-26T06:04:24.697Z,5.30
2018-03-26T06:06:52.994Z,5.30
2018-03-26T06:09:21.308Z,5.30
2018-03-26T06:11:49.584Z,5.30
2018-03-26T06:14:17.841Z,5.30
2018-03-26T06:17:03.788Z,5.40
2018-03-26T06:19:32.049Z,5.40
2018-03-26T06:22:00.468Z,5.40
2018-03-26T06:24:28.791Z,5.40
2018-03-26T06:26:57.973Z,5.50
2018-03-26T06:29:27.303Z,5.40
2018-03-26T06:31:55.683Z,5.50
2018-03-26T06:34:24.804Z,5.60
2018-03-26T06:40:03.604Z,5.60
2018-03-26T06:42:32.721Z,5.60
2018-03-26T06:45:01.221Z,5.50
2018-03-26T06:47:29.796Z,5.60
2018-03-26T06:49:58.315Z,5.60
2018-03-26T06:52:26.754Z,5.60
2018-03-26T06:54:55.954Z,5.70
2018-03-26T06:57:24.274Z,5.70
2018-03-26T06:59:53.334Z,5.80
2018-03-26T07:02:21.739Z,5.80
2018-03-26T07:04:49.992Z,5.90
2018-03-26T07:07:18.285Z,5.90
2018-03-26T07:09:46.608Z,5.90
2018-03-26T07:12:15.682Z,6.00
2018-03-26T07:14:44.002Z,6.00
2018-03-26T07:17:12.272Z,6.10
2018-03-26T07:19:41.325Z,6.10
2018-03-26T07:22:09.573Z,6.10
2018-03-26T07:24:37.954Z,6.20
2018-03-26T07:27:06.202Z,6.20
2018-03-26T07:29:34.536Z,6.30
2018-03-26T07:32:02.827Z,6.30
2018-03-26T07:34:31.127Z,6.30
2018-03-26T07:36:59.429Z,6.30
2018-03-26T07:39:27.782Z,6.30
2018-03-26T07:41:56.081Z,6.30
2018-03-26T07:44:24.432Z,6.30
2018-03-26T07:46:53.499Z,6.50
2018-03-26T07:49:22.600Z,6.60
2018-03-26T07:51:50.857Z,6.50
2018-03-26T07:54:19.908Z,6.70
2018-03-26T07:56:48.811Z,6.70
2018-03-26T07:59:17.076Z,6.80
2018-03-26T08:01:46.137Z,6.90
2018-03-26T08:04:14.412Z,6.90
2018-03-26T08:06:42.663Z,7.00
2018-03-26T08:09:10.932Z,7.10
2018-03-26T08:11:39.970Z,7.30
2018-03-26T08:14:08.247Z,7.20
2018-03-26T08:16:37.266Z,7.70
2018-03-26T08:19:05.533Z,7.60
2018-03-26T08:21:34.555Z,7.80
2018-03-26T08:24:02.896Z,7.70
2018-03-26T08:26:31.196Z,7.90
2018-03-26T08:28:59.535Z,8.00
2018-03-26T08:31:27.932Z,7.90
2018-03-26T08:33:56.310Z,8.00
2018-03-26T08:36:24.784Z,8.00
2018-03-26T08:38:53.008Z,8.00
2018-03-26T08:41:21.383Z,8.10
2018-03-26T08:43:49.639Z,8.20
2018-03-26T08:46:18.694Z,8.40
2018-03-26T08:48:47.026Z,8.40
2018-03-26T08:51:15.312Z,8.40
2018-03-26T08:53:45.168Z,8.70
2018-03-26T08:56:13.501Z,8.70
2018-03-26T08:58:41.764Z,8.90
2018-03-26T09:01:10.055Z,9.00
2018-03-26T09:03:38.338Z,8.90
2018-03-26T09:06:06.607Z,9.00
2018-03-26T09:08:34.880Z,9.20
2018-03-26T09:11:03.163Z,9.50
2018-03-26T09:13:31.432Z,9.60
2018-03-26T09:15:59.718Z,9.60
2018-03-26T09:18:28.216Z,9.50
2018-03-26T09:20:56.758Z,9.70
2018-03-26T09:23:25.074Z,10.10
2018-03-26T09:25:53.459Z,10.10
2018-03-26T09:28:21.724Z,10.30
2018-03-26T09:30:51.524Z,10.70
2018-03-26T09:33:19.862Z,10.70
2018-03-26T09:35:48.170Z,10.90
2018-03-26T09:38:16.453Z,11.30
2018-03-26T09:40:45.504Z,10.90
2018-03-26T09:43:15.417Z,10.70
2018-03-26T09:45:45.224Z,10.50
2018-03-26T09:48:13.649Z,10.50
2018-03-26T09:50:41.976Z,10.60
2018-03-26T09:53:10.282Z,11.00
2018-03-26T09:55:38.594Z,10.60
2018-03-26T09:58:06.869Z,10.60
2018-03-26T10:00:40.596Z,10.70
2018-03-26T10:03:08.956Z,10.60
2018-03-26T10:05:37.234Z,10.60
2018-03-26T10:08:06.364Z,10.30
2018-03-26T10:10:34.678Z,10.20
2018-03-26T10:13:02.931Z,10.30
2018-03-26T10:15:31.195Z,10.40
2018-03-26T10:17:59.501Z,10.40
2018-03-26T10:20:28.727Z,10.90
2018-03-26T10:22:57.252Z,10.80
2018-03-26T10:25:26.408Z,10.80
2018-03-26T10:27:54.870Z,10.80
2018-03-26T10:30:23.233Z,11.00
2018-03-26T10:32:51.627Z,10.80
2018-03-26T10:35:19.999Z,11.00
2018-03-26T10:37:48.400Z,10.80
2018-03-26T10:40:16.701Z,11.00
2018-03-26T10:42:45.045Z,11.10
2018-03-26T10:45:14.244Z,11.30
2018-03-26T10:47:42.581Z,11.20
2018-03-26T10:50:10.969Z,11.40
2018-03-26T10:52:39.245Z,11.30
2018-03-26T10:55:07.549Z,11.20
2018-03-26T10:57:35.918Z,11.20
2018-03-26T11:00:04.963Z,11.10
2018-03-26T11:02:33.326Z,11.00
2018-03-26T11:05:01.629Z,10.90
2018-03-26T11:07:29.971Z,10.90
2018-03-26T11:09:58.308Z,11.00
2018-03-26T11:12:27.405Z,10.70
2018-03-26T11:14:56.089Z,10.70
2018-03-26T11:17:25.323Z,10.70
2018-03-26T11:19:53.668Z,10.60
2018-03-26T11:22:21.963Z,10.80
2018-03-26T11:24:50.296Z,10.70
2018-03-26T11:27:18.577Z,10.60
2018-03-26T11:29:47.691Z,10.80
2018-03-26T11:32:16.009Z,10.80
2018-03-26T11:34:44.342Z,11.10
2018-03-26T11:37:12.696Z,11.20
2018-03-26T11:39:40.959Z,11.40
2018-03-26T11:42:09.246Z,11.50
2018-03-26T11:44:37.508Z,11.60
2018-03-26T11:47:06.523Z,11.20
2018-03-26T11:49:34.826Z,11.10
2018-03-26T11:52:03.099Z,11.40
2018-03-26T11:54:32.130Z,11.50
2018-03-26T11:57:00.406Z,11.40
2018-03-26T11:59:29.509Z,11.80
2018-03-26T12:01:57.828Z,11.70
2018-03-26T12:04:26.220Z,11.70
2018-03-26T12:06:54.658Z,12.00
2018-03-26T12:09:23.800Z,12.10
2018-03-26T12:11:52.089Z,12.00
2018-03-26T12:14:20.372Z,12.30
2018-03-26T12:16:48.862Z,12.20
2018-03-26T12:19:17.158Z,11.70
2018-03-26T12:21:45.430Z,11.90
2018-03-26T12:24:32.016Z,12.20
2018-03-26T12:27:00.390Z,12.10
2018-03-26T12:29:46.478Z,12.30
2018-03-26T12:32:14.760Z,12.50
2018-03-26T12:35:00.775Z,12.40
2018-03-26T12:37:29.996Z,12.50
2018-03-26T12:39:59.088Z,12.60
2018-03-26T12:42:27.396Z,12.60
2018-03-26T12:45:13.476Z,12.70
2018-03-26T12:47:42.517Z,12.80
2018-03-26T12:50:10.809Z,12.70
2018-03-26T12:52:53.445Z,12.50
2018-03-26T12:55:21.732Z,12.30
2018-03-26T13:00:31.406Z,12.20
2018-03-26T13:02:59.808Z,11.90
2018-03-26T13:05:28.130Z,11.60
2018-03-26T13:07:57.465Z,11.70
2018-03-26T13:10:25.860Z,11.60
2018-03-26T13:12:54.263Z,11.80
2018-03-26T13:15:22.551Z,12.00
2018-03-26T13:17:50.819Z,11.80
2018-03-26T13:20:19.904Z,11.90
2018-03-26T13:22:48.210Z,11.90
2018-03-26T13:27:47.093Z,11.30
2018-03-26T13:30:15.464Z,11.30
2018-03-26T13:32:43.753Z,11.20
2018-03-26T13:35:13.163Z,10.90
2018-03-26T13:37:42.196Z,10.90
2018-03-26T13:40:10.480Z,10.80
2018-03-26T13:42:38.750Z,10.90
2018-03-26T13:47:36.668Z,10.80
2018-03-26T13:50:05.005Z,10.70
2018-03-26T13:52:33.985Z,10.10
2018-03-26T13:55:02.264Z,10.10
2018-03-26T13:57:30.659Z,10.20
2018-03-26T13:59:59.064Z,10.40
2018-03-26T14:02:27.487Z,10.20
2018-03-26T14:04:56.032Z,10.00
2018-03-26T14:07:24.711Z,9.80
2018-03-26T14:10:10.725Z,9.60
2018-03-26T14:16:04.283Z,9.30
2018-03-26T14:18:32.528Z,9.30
2018-03-26T14:21:01.646Z,9.30
2018-03-26T14:23:29.975Z,9.30
2018-03-26T14:25:58.517Z,9.30
2018-03-26T14:28:26.865Z,9.20
2018-03-26T14:30:55.305Z,9.20
2018-03-26T14:33:23.606Z,9.10
2018-03-26T14:35:51.888Z,9.00
2018-03-26T14:38:20.948Z,9.00
2018-03-26T14:40:49.224Z,8.90
2018-03-26T14:43:17.484Z,9.00
2018-03-26T14:45:45.751Z,9.00
2018-03-26T14:48:14.795Z,8.90
2018-03-26T14:50:43.072Z,8.90
2018-03-26T14:53:11.382Z,8.90
2018-03-26T14:55:39.641Z,8.90
2018-03-26T14:58:09.438Z,9.00
2018-03-26T15:00:38.475Z,9.20
2018-03-26T15:03:07.575Z,9.10
2018-03-26T15:05:36.605Z,9.10
2018-03-26T15:08:04.894Z,9.10
2018-03-26T15:10:33.158Z,9.10
2018-03-26T15:13:01.585Z,9.00
2018-03-26T15:15:29.852Z,9.00
2018-03-26T15:17:58.180Z,9.00
2018-03-26T15:20:26.574Z,9.00
2018-03-26T15:22:55.782Z,9.00
2018-03-26T15:25:24.871Z,8.90
2018-03-26T15:27:53.325Z,8.80
2018-03-26T15:30:22.354Z,8.70
2018-03-26T15:32:50.643Z,8.70
2018-03-26T15:35:18.908Z,8.80
2018-03-26T15:37:47.970Z,8.90
2018-03-26T15:40:16.244Z,8.80
2018-03-26T15:42:44.567Z,8.80
2018-03-26T15:45:12.830Z,8.80
2018-03-26T15:47:41.110Z,8.80
2018-03-26T15:50:09.370Z,8.70
2018-03-26T15:52:37.660Z,8.70
2018-03-26T15:55:06.676Z,8.50
2018-03-26T15:57:35.708Z,8.50
2018-03-26T16:00:03.966Z,8.40
2018-03-26T16:05:39.187Z,8.30
2018-03-26T16:08:07.488Z,8.30
2018-03-26T16:10:35.748Z,8.30
2018-03-26T16:13:04.938Z,8.30
2018-03-26T16:15:33.964Z,8.20
2018-03-26T16:18:03.007Z,8.10
2018-03-26T16:20:31.269Z,8.00
2018-03-26T16:22:59.584Z,8.10
2018-03-26T16:25:27.937Z,8.10
2018-03-26T16:27:56.295Z,8.00
2018-03-26T16:30:24.572Z,8.00
2018-03-26T16:32:52.850Z,8.00
2018-03-26T16:35:21.876Z,8.10
2018-03-26T16:37:50.164Z,8.00
2018-03-26T16:40:18.415Z,8.10
2018-03-26T16:42:47.435Z,8.10
2018-03-26T16:45:15.776Z,8.10
2018-03-26T16:47:44.086Z,8.10
2018-03-26T16:50:12.355Z,8.10
2018-03-26T16:52:41.386Z,8.10
2018-03-26T16:55:09.658Z,8.10
2018-03-26T16:57:37.914Z,8.10
2018-03-26T17:00:06.189Z,8.10
2018-03-26T17:02:35.210Z,7.80
2018-03-26T17:05:03.523Z,7.90
2018-03-26T17:07:31.776Z,7.90
2018-03-26T17:10:00.102Z,7.90
2018-03-26T17:12:29.115Z,7.80
2018-03-26T17:14:58.205Z,7.70
2018-03-26T17:17:26.534Z,7.60
2018-03-26T17:19:54.855Z,7.60
2018-03-26T17:22:23.198Z,7.60
2018-03-26T17:24:52.227Z,7.40
2018-03-26T17:27:20.508Z,7.40
2018-03-26T17:29:48.783Z,7.40
2018-03-26T17:32:17.824Z,7.10
2018-03-26T17:34:46.153Z,7.10
2018-03-26T17:37:14.442Z,7.00
2018-03-26T17:39:42.735Z,7.00
2018-03-26T17:42:11.804Z,6.80
2018-03-26T17:44:40.813Z,6.80
2018-03-26T17:47:09.087Z,6.70
2018-03-26T17:49:39.017Z,6.60
2018-03-26T17:52:07.272Z,6.50
2018-03-26T17:54:37.054Z,6.40
2018-03-26T17:57:05.305Z,6.40
2018-03-26T17:59:33.587Z,6.40
2018-03-26T18:02:01.863Z,6.40
2018-03-26T18:04:30.889Z,6.40
2018-03-26T18:06:59.179Z,6.30
2018-03-26T18:09:28.241Z,6.30
2018-03-26T18:11:56.649Z,6.30
2018-03-26T18:14:25.991Z,6.30
2018-03-26T18:16:54.343Z,6.20
2018-03-26T18:19:22.596Z,6.50
2018-03-26T18:21:50.876Z,6.60
2018-03-26T18:24:19.144Z,6.60
2018-03-26T18:26:47.424Z,6.50
2018-03-26T18:29:16.442Z,6.20
2018-03-26T18:31:44.758Z,6.20
2018-03-26T18:34:13.013Z,6.20
2018-03-26T18:36:42.074Z,6.00
2018-03-26T18:39:10.334Z,6.00
2018-03-26T18:41:38.654Z,6.00
2018-03-26T18:44:06.930Z,6.00
2018-03-26T18:46:35.208Z,5.90
2018-03-26T18:49:03.468Z,5.90
2018-03-26T18:51:31.744Z,5.90
2018-03-26T18:54:00.035Z,5.80
2018-03-26T18:56:28.322Z,5.80
2018-03-26T18:58:57.390Z,5.80
2018-03-26T19:01:25.973Z,5.70
2018-03-26T19:03:54.266Z,5.80
2018-03-26T19:06:22.545Z,5.80
2018-03-26T19:08:51.975Z,5.80
2018-03-26T19:11:21.024Z,8.20
2018-03-26T19:13:49.354Z,5.70
2018-03-26T19:16:17.741Z,5.70
2018-03-26T19:18:46.064Z,5.70
2018-03-26T19:21:14.377Z,5.70
2018-03-26T19:23:42.671Z,5.60
2018-03-26T19:26:10.932Z,5.50
2018-03-26T19:28:39.228Z,5.50
2018-03-26T19:31:07.532Z,5.50
2018-03-26T19:33:35.825Z,5.40
2018-03-26T19:36:04.089Z,5.40
2018-03-26T19:38:32.378Z,5.40
2018-03-26T19:41:01.460Z,5.80
2018-03-26T19:43:29.776Z,5.30
2018-03-26T19:45:58.184Z,5.30
2018-03-26T19:48:26.734Z,5.20
2018-03-26T19:50:55.042Z,5.20
2018-03-26T19:53:23.350Z,5.20
2018-03-26T19:55:51.628Z,5.20
2018-03-26T19:58:20.039Z,5.20
2018-03-26T20:00:48.289Z,5.10
2018-03-26T20:03:17.535Z,5.10
2018-03-26T20:05:45.836Z,5.10
2018-03-26T20:08:14.130Z,5.10
2018-03-26T20:10:42.507Z,5.10
2018-03-26T20:13:10.793Z,5.10
2018-03-26T20:15:39.061Z,5.10
2018-03-26T20:18:07.350Z,5.10
2018-03-26T20:20:35.620Z,5.00
2018-03-26T20:23:03.983Z,5.00
2018-03-26T20:25:32.194Z,5.00
2018-03-26T20:28:01.240Z,5.10
2018-03-26T20:30:29.520Z,5.00
2018-03-26T20:32:57.862Z,5.10
2018-03-26T20:35:26.939Z,5.10
2018-03-26T20:37:55.261Z,5.10
2018-03-26T20:40:24.328Z,5.20
2018-03-26T20:42:52.610Z,5.20
2018-03-26T20:45:20.896Z,5.30
2018-03-26T20:47:49.171Z,5.30
2018-03-26T20:50:17.559Z,5.40
2018-03-26T20:52:45.848Z,5.40
2018-03-26T20:55:14.162Z,5.40
2018-03-26T20:57:42.423Z,5.50
2018-03-26T21:00:10.721Z,5.50
2018-03-26T21:02:38.988Z,5.60
2018-03-26T21:05:07.285Z,5.60
2018-03-26T21:07:35.581Z,5.70
2018-03-26T21:10:03.899Z,5.70
2018-03-26T21:12:32.172Z,5.70
2018-03-26T21:15:00.446Z,5.70
2018-03-26T21:17:28.771Z,5.70
2018-03-26T21:19:57.097Z,5.60
2018-03-26T21:22:26.507Z,5.60
2018-03-26T21:24:55.579Z,5.70
2018-03-26T21:27:23.928Z,5.60
2018-03-26T21:29:52.244Z,5.60
2018-03-26T21:32:20.503Z,5.60
2018-03-26T21:34:49.608Z,5.50
2018-03-26T21:37:18.645Z,5.50
2018-03-26T21:39:46.948Z,5.50
2018-03-26T21:42:15.978Z,5.50
2018-03-26T21:44:44.298Z,5.40
2018-03-26T21:47:14.312Z,5.40
2018-03-26T21:49:43.408Z,5.40
2018-03-26T21:52:11.728Z,5.30
2018-03-26T21:54:40.052Z,5.30
2018-03-26T21:57:08.344Z,5.30
2018-03-26T21:59:36.637Z,5.20
2018-03-26T22:02:04.893Z,5.20
2018-03-26T22:04:33.975Z,5.20
2018-03-26T22:07:02.236Z,5.10
2018-03-26T22:09:30.533Z,5.10
2018-03-26T22:11:58.804Z,5.10
2018-03-26T22:14:27.145Z,5.00
2018-03-26T22:16:56.281Z,5.00
2018-03-26T22:19:25.396Z,4.90
2018-03-26T22:21:53.685Z,4.90
2018-03-26T22:24:21.945Z,4.90
2018-03-26T22:26:50.985Z,4.80
2018-03-26T22:29:19.277Z,4.70
2018-03-26T22:31:47.600Z,4.80
2018-03-26T22:34:15.884Z,4.70
2018-03-26T22:36:44.188Z,4.70
2018-03-26T22:39:13.974Z,4.70
2018-03-26T22:41:42.277Z,4.70
2018-03-26T22:44:11.300Z,4.70
2018-03-26T22:46:39.573Z,4.70
2018-03-26T22:49:07.881Z,4.70
2018-03-26T22:51:36.148Z,4.70
2018-03-26T22:54:04.508Z,4.60
2018-03-26T22:56:32.964Z,4.60
2018-03-26T22:59:01.226Z,4.60
2018-03-26T23:01:29.526Z,4.60
2018-03-26T23:03:57.812Z,4.60
2018-03-26T23:06:26.182Z,4.60
2018-03-26T23:08:54.464Z,4.60
2018-03-26T23:11:22.744Z,4.60
2018-03-26T23:13:51.002Z,4.60
2018-03-26T23:16:20.036Z,4.60
2018-03-26T23:18:48.311Z,4.60
2018-03-26T23:21:17.348Z,4.60
2018-03-26T23:23:45.596Z,4.60
2018-03-26T23:26:14.649Z,4.50
2018-03-26T23:28:42.929Z,4.50
2018-03-26T23:31:11.186Z,4.50
2018-03-26T23:33:40.240Z,4.40
2018-03-26T23:36:08.504Z,4.40
2018-03-26T23:38:36.775Z,4.40
2018-03-26T23:41:05.789Z,4.40
2018-03-26T23:43:34.081Z,4.40
2018-03-26T23:48:32.731Z,4.40
2018-03-26T23:51:00.993Z,4.40
2018-03-26T23:53:30.053Z,4.40
2018-03-26T23:55:58.333Z,4.40
2018-03-26T23:58:26.614Z,4.40
